Latest Weather Observations for Barrow Island

IDW60801

Issued at 2:03 pm WST Saturday 4 July 2020 (issued every 10 minutes, with the page automatically refreshed every 10 minutes)

About weather observations | Map of weather stations | Latest weather observations for WA | Other Formats
Station Details ID: 005094 Name: BARROW ISLAND AIRPORT Lat: -20.87 Lon: 115.41 Height: 6.4 m
Data from the previous 72 hours. | See also: Recent months at Barrow Island
Date/Time
WST
Temp
°C
App
Temp
°C
Dew
Point
°C
Rel
Hum
%
Delta-T
°C
Wind Press
QNH
hPa
Press
MSL
hPa
Rain since
9am
mm
Dir  Spd
km/h
Gust
km/h
Spd
kts
Gust
kts
04/02:00pm 26.1 24.7 16.6 55 5.9 NE 19 20 10 11 1016.9 1016.9 0.0
04/01:30pm 25.8 24.8 16.6 56 5.7 ENE 17 20 9 11 1017.3 1017.3 0.0
04/01:00pm 25.5 23.9 16.4 57 5.6 ENE 20 22 11 12 1017.8 1017.8 0.0
04/12:30pm 25.3 23.3 15.6 55 5.9 ENE 20 24 11 13 1018.2 1018.2 0.0
04/12:00pm 25.2 22.7 16.1 57 5.5 ENE 24 30 13 16 1018.8 1018.8 0.0
04/11:30am 25.2 21.9 14.9 52 6.2 E 26 30 14 16 1019.1 1019.1 0.0
04/11:00am 24.6 21.2 13.8 51 6.3 E 24 28 13 15 1019.5 1019.5 0.0
04/10:30am 24.3 20.4 14.4 54 5.9 E 28 33 15 18 1019.8 1019.8 0.0
04/10:00am 24.2 19.1 13.7 52 6.1 E 33 37 18 20 1020.0 1020.0 0.0
04/09:30am 24.1 19.1 13.9 53 6.0 E 33 39 18 21 1020.2 1020.2 0.0
04/09:00am 23.9 20.3 14.3 55 5.6 E 26 33 14 18 1020.2 1020.2 0.0
04/08:30am 23.6 19.3 13.2 52 6.0 E 28 32 15 17 1020.0 1020.0 0.0
04/08:00am 23.3 18.9 12.9 52 6.0 E 28 33 15 18 1019.7 1019.7 0.0
04/07:30am 23.0 18.8 13.5 55 5.5 E 28 32 15 17 1019.5 1019.5 0.0
04/07:00am 22.8 18.2 12.4 52 5.9 E 28 33 15 18 1019.4 1019.4 0.0
04/06:30am 22.7 19.4 11.7 49 6.2 E 20 24 11 13 1019.3 1019.3 0.0
04/06:00am 22.6 19.6 12.0 51 6.0 E 19 24 10 13 1019.2 1019.2 0.0
04/05:30am 22.7 19.8 12.3 52 5.9 ESE 19 22 10 12 1019.0 1019.0 0.0
04/05:00am 23.2 17.7 11.9 49 6.4 E 32 41 17 22 1018.9 1018.9 0.0
04/04:30am 23.1 19.3 12.4 51 6.1 E 24 28 13 15 1018.9 1018.9 0.0
04/04:00am 23.0 20.1 12.9 53 5.8 E 20 26 11 14 1018.9 1018.9 0.0
04/03:30am 23.1 21.1 14.9 60 4.9 E 19 24 10 13 1018.8 1018.8 0.0
04/03:00am 23.2 20.8 14.5 58 5.1 E 20 24 11 13 1018.9 1018.9 0.0
04/02:30am 23.4 21.1 15.7 62 4.6 E 22 28 12 15 1019.0 1019.0 0.0
04/02:00am 23.6 20.6 14.9 58 5.2 E 24 28 13 15 1019.3 1019.3 0.0
04/01:30am 23.4 21.2 16.0 63 4.5 E 22 26 12 14 1019.3 1019.3 0.0
04/01:00am 23.0 22.8 17.5 71 3.4 ESE 15 19 8 10 1019.5 1019.5 0.0
04/12:30am 22.7 24.2 18.9 79 2.4 ESE 9 13 5 7 1019.5 1019.5 0.0
04/12:00am 22.4 24.0 19.2 82 2.0 SE 9 13 5 7 1019.7 1019.7 0.0
 
Date/Time
WST
Temp
°C
App
Temp
°C
Dew
Point
°C
Rel
Hum
%
Delta-T
°C
Wind Press
QNH
hPa
Press
MSL
hPa
Rain since
9am
mm
Dir  Spd
km/h
Gust
km/h
Spd
kts
Gust
kts
03/11:30pm 22.4 23.7 19.2 82 2.0 SSE 11 13 6 7 1019.8 1019.8 0.0
03/11:00pm 22.4 23.7 19.2 82 2.0 SSE 11 13 6 7 1020.0 1020.0 0.0
03/10:30pm 23.0 24.2 19.0 78 2.5 ESE 11 13 6 7 1019.9 1019.9 0.0
03/10:00pm 23.3 23.8 18.4 74 3.1 ESE 13 15 7 8 1020.1 1020.1 0.0
03/09:30pm 23.0 24.1 19.6 81 2.2 SE 13 17 7 9 1020.1 1020.1 0.0
03/09:00pm 23.0 23.1 19.2 79 2.4 SE 17 19 9 10 1019.9 1019.9 0.0
03/08:30pm 22.1 22.9 18.1 78 2.5 NE 11 11 6 6 1019.5 1019.5 0.0
03/08:00pm 21.3 21.0 16.5 74 2.9 NE 13 15 7 8 1019.2 1019.2 0.0
03/07:30pm 21.4 20.0 15.5 69 3.5 NE 17 17 9 9 1018.8 1018.8 0.0
03/07:00pm 21.5 20.5 15.6 69 3.5 NE 15 17 8 9 1018.4 1018.4 0.0
03/06:30pm 22.1 20.8 15.9 68 3.7 NE 17 19 9 10 1018.0 1018.0 0.0
03/06:00pm 23.0 21.3 15.8 64 4.3 NNE 19 22 10 12 1017.7 1017.7 0.0
03/05:30pm 24.4 21.9 15.1 56 5.6 NE 22 26 12 14 1017.5 1017.5 0.0
03/05:00pm 25.4 22.6 15.4 54 6.0 NE 24 28 13 15 1017.4 1017.4 0.0
03/04:30pm 25.8 22.0 14.6 50 6.7 NE 28 33 15 18 1017.2 1017.2 0.0
03/04:00pm 26.0 22.9 15.7 53 6.3 NE 26 32 14 17 1017.1 1017.1 0.0
03/03:30pm 25.8 22.2 15.2 52 6.4 NE 28 32 15 17 1017.2 1017.2 0.0
03/03:00pm 25.8 23.4 16.4 56 5.8 ENE 24 30 13 16 1017.2 1017.2 0.0
03/02:30pm 26.0 23.3 16.5 55 5.9 ENE 26 30 14 16 1017.3 1017.3 0.0
03/02:00pm 25.7 23.8 15.7 54 6.1 ENE 20 24 11 13 1017.4 1017.4 0.0
03/01:30pm 25.6 22.8 15.3 53 6.2 ENE 24 30 13 16 1017.7 1017.7 0.0
03/01:00pm 25.6 23.8 15.9 55 5.9 E 20 22 11 12 1018.3 1018.3 0.0
03/12:30pm 25.9 23.8 16.2 55 6.0 E 22 28 12 15 1018.7 1018.7 0.0
03/12:00pm 25.6 23.3 15.6 54 6.1 E 22 28 12 15 1019.0 1019.0 0.0
03/11:30am 25.0 22.3 14.5 52 6.2 E 22 28 12 15 1019.5 1019.5 0.0
03/11:00am 25.3 21.3 14.1 50 6.6 E 28 32 15 17 1019.6 1019.6 0.0
03/10:30am 24.3 19.9 15.2 57 5.5 E 32 37 17 20 1019.4 1019.4 0.0
03/10:00am 24.5 18.7 14.0 52 6.2 E 37 43 20 23 1019.8 1019.8 0.0
03/09:30am 24.5 19.0 14.6 54 5.9 E 37 44 20 24 1019.6 1019.6 0.0
03/09:00am 24.4 19.5 15.3 57 5.5 ENE 35 43 19 23 1019.4 1019.4 0.0
03/08:30am 24.7 19.4 15.3 56 5.7 ENE 37 46 20 25 1019.1 1019.1 0.0
03/08:00am 24.5 17.5 14.3 53 6.0 ENE 44 52 24 28 1018.6 1018.6 0.0
03/07:30am 24.5 17.4 14.0 52 6.2 ENE 44 52 24 28 1018.4 1018.4 0.0
03/07:00am 24.2 17.5 14.6 55 5.7 ENE 43 52 23 28 1017.9 1017.9 0.0
03/06:30am 24.2 18.0 14.9 56 5.5 ENE 41 50 22 27 1017.7 1017.7 0.0
03/06:00am 24.2 19.5 15.9 59 5.0 E 35 41 19 22 1017.2 1017.2 0.0
03/05:30am 24.2 19.5 15.9 59 5.0 E 35 41 19 22 1016.8 1016.8 0.0
03/05:00am 23.8 20.0 16.6 64 4.4 E 32 37 17 20 1016.6 1016.6 0.0
03/04:30am 23.6 20.8 18.3 72 3.3 ENE 30 33 16 18 1016.4 1016.4 0.0
03/04:00am 23.4 23.1 19.5 79 2.5 E 20 24 11 13 1016.7 1016.7 0.0
03/03:30am 23.5 23.2 19.6 79 2.5 ENE 20 22 11 12 1016.8 1016.8 0.0
03/03:00am 23.3 23.0 19.2 78 2.6 ENE 19 22 10 12 1016.8 1016.8 0.0
03/02:30am 23.3 22.5 19.2 78 2.6 ENE 22 24 12 13 1016.9 1016.9 0.0
03/02:00am 22.8 22.5 19.6 82 2.0 NE 20 22 11 12 1016.8 1016.8 0.0
03/01:30am 23.0 23.4 19.8 82 2.1 ENE 17 20 9 11 1017.1 1017.1 0.0
03/01:00am 23.2 24.1 20.0 82 2.1 ENE 15 19 8 10 1017.1 1017.1 0.0
03/12:30am 23.1 24.4 19.3 79 2.4 E 11 15 6 8 1017.2 1017.2 0.0
03/12:00am 23.3 23.5 20.1 82 2.1 E 19 20 10 11 1017.1 1017.1 0.0
 
Date/Time
WST
Temp
°C
App
Temp
°C
Dew
Point
°C
Rel
Hum
%
Delta-T
°C
Wind Press
QNH
hPa
Press
MSL
hPa
Rain since
9am
mm
Dir  Spd
km/h
Gust
km/h
Spd
kts
Gust
kts
02/11:30pm 23.3 24.5 19.9 81 2.2 E 13 17 7 9 1017.5 1017.5 0.0
02/11:00pm 22.8 24.5 20.1 85 1.7 SE 11 17 6 9 1017.5 1017.5 0.0
02/10:30pm 23.4 26.1 21.3 88 1.4 SE 9 11 5 6 1017.4 1017.4 0.0
02/10:00pm 22.3 23.4 18.9 81 2.1 NE 11 13 6 7 1017.3 1017.3 0.0
02/09:30pm 21.6 23.2 18.2 81 2.1 N 7 11 4 6 1016.5 1016.5 0.0
02/09:00pm 21.3 22.8 17.7 80 2.2 NNE 6 7 3 4 1016.4 1016.4 0.0
02/08:30pm 23.3 24.6 20.1 82 2.1 NE 13 13 7 7 1016.1 1016.1 0.0
02/08:00pm 23.6 24.4 19.1 76 2.9 NE 13 19 7 10 1016.1 1016.1 0.0
02/07:30pm 23.5 23.6 20.4 83 2.0 ENE 20 22 11 12 1015.7 1015.7 0.0
02/07:00pm 23.4 24.8 19.5 79 2.5 NE 11 13 6 7 1015.7 1015.7 0.0
02/06:30pm 23.7 23.9 19.4 77 2.8 ENE 17 19 9 10 1015.2 1015.2 0.0
02/06:00pm 23.4 23.1 19.1 77 2.7 NE 19 22 10 12 1014.7 1014.7 0.0
02/05:30pm 23.7 23.5 18.6 73 3.2 ENE 17 20 9 11 1014.6 1014.6 0.0
02/05:00pm 23.7 23.7 19.0 75 3.0 ENE 17 19 9 10 1014.1 1014.1 0.0
02/04:30pm 23.9 23.5 18.8 73 3.2 ENE 19 20 10 11 1014.0 1014.0 0.0
02/04:00pm 23.9 23.5 18.1 70 3.6 ENE 17 20 9 11 1013.8 1013.8 0.0
02/03:30pm 24.1 24.1 18.1 69 3.8 NE 15 19 8 10 1013.9 1013.9 0.0
02/03:00pm 24.3 23.0 18.2 68 3.8 ENE 22 26 12 14 1013.7 1013.7 0.0
02/02:30pm 24.3 23.6 18.7 71 3.6 ENE 20 24 11 13 1013.7 1013.7 0.0
02/02:00pm 24.4 23.2 19.2 73 3.3 ENE 24 28 13 15 1013.8 1013.8 0.0
02/01:30pm 24.4 22.9 18.6 70 3.7 ENE 24 28 13 15 1014.1 1014.1 0.0
02/01:00pm 24.5 23.7 20.0 76 2.9 ENE 24 28 13 15 1014.4 1014.4 0.0
02/12:30pm 24.7 24.3 20.2 76 2.9 ENE 22 26 12 14 1014.8 1014.8 0.0
02/12:00pm 24.7 24.8 20.4 77 2.8 ENE 20 26 11 14 1015.2 1015.2 0.0
02/11:30am 24.5 24.4 20.0 76 2.9 ENE 20 24 11 13 1015.7 1015.7 0.0
02/11:00am 24.2 23.8 19.3 74 3.1 ENE 20 24 11 13 1016.1 1016.1 0.0
02/10:30am 24.2 23.5 19.5 75 3.0 E 22 26 12 14 1016.2 1016.2 0.0
02/10:00am 23.7 23.4 19.6 78 2.6 E 20 24 11 13 1016.3 1016.3 0.0
02/09:30am 23.5 24.0 21.2 87 1.5 E 20 24 11 13 1016.2 1016.2 0.0
02/09:00am 23.4 23.5 21.1 87 1.5 ENE 22 24 12 13 1016.0 1016.0 -
02/08:30am 23.1 23.4 20.8 87 1.5 E 20 24 11 13 1015.7 1015.7 -
02/08:00am 22.8 23.0 20.5 87 1.5 ESE 20 22 11 12 1015.4 1015.4 -
02/07:30am 22.6 22.8 20.5 88 1.4 E 20 24 11 13 1015.1 1015.1 -
02/07:00am 22.5 22.9 20.6 89 1.2 E 19 22 10 12 1014.8 1014.8 -
02/06:30am 22.1 25.3 20.4 90 1.1 WNW 4 9 2 5 1014.4 1014.4 -
02/06:00am 20.8 23.9 18.7 88 1.3 CALM 0 0 0 0 1014.1 1014.1 -
02/05:30am 20.6 21.9 18.4 87 1.4 NNE 9 11 5 6 1013.8 1013.8 -
02/05:00am 21.6 23.3 19.3 87 1.5 NE 9 11 5 6 1013.7 1013.7 -
02/04:30am 22.7 24.8 20.2 86 1.6 E 9 11 5 6 1013.6 1013.6 -
02/04:00am 22.1 24.4 19.8 87 1.5 E 7 9 4 5 1013.7 1013.7 -
02/03:30am 21.1 22.7 18.3 84 1.7 ENE 7 9 4 5 1013.6 1013.6 -
02/03:00am 20.6 21.9 17.6 83 1.8 NNE 7 11 4 6 1013.7 1013.7 -
02/02:30am 20.3 20.3 17.1 82 1.9 NW 13 15 7 8 1013.8 1013.8 -
02/02:00am 20.3 20.2 16.9 81 2.1 NW 13 13 7 7 1014.0 1014.0 -
02/01:30am 20.4 22.8 17.0 81 2.1 CALM 0 0 0 0 1013.9 1013.9 -
02/01:00am 20.8 21.8 16.8 78 2.4 NW 7 9 4 5 1014.4 1014.4 -
02/12:30am 20.5 20.4 16.1 76 2.6 NW 11 13 6 7 1014.5 1014.5 -
02/12:00am 20.1 20.1 15.3 74 2.8 NW 9 11 5 6 1014.8 1014.8 -
 
Date/Time
WST
Temp
°C
App
Temp
°C
Dew
Point
°C
Rel
Hum
%
Delta-T
°C
Wind Press
QNH
hPa
Press
MSL
hPa
Rain since
9am
mm
Dir  Spd
km/h
Gust
km/h
Spd
kts
Gust
kts
01/11:30pm 20.0 19.5 15.0 73 2.9 NW 11 11 6 6 1015.0 1015.0 0.0
01/11:00pm 20.7 20.8 14.4 67 3.7 NW 7 9 4 5 1015.1 1015.1 0.0
01/10:30pm 21.1 21.4 14.5 66 3.9 NW 6 7 3 4 1015.0 1015.0 0.0
01/10:00pm 20.8 21.2 14.7 68 3.6 NW 6 7 3 4 1015.1 1015.1 0.0
01/09:30pm 20.8 20.9 15.4 71 3.2 NW 9 9 5 5 1015.0 1015.0 0.0
01/09:00pm 21.2 23.2 17.0 77 2.6 WNW 2 6 1 3 1014.9 1014.9 0.0
01/08:30pm 20.7 21.7 16.3 76 2.6 WNW 6 11 3 6 1014.8 1014.8 0.0
01/08:00pm 21.1 23.4 16.7 76 2.7 CALM 0 0 0 0 1014.5 1014.5 0.0
01/07:30pm 21.2 23.6 17.0 77 2.6 CALM 0 0 0 0 1014.3 1014.3 0.0
01/07:00pm 22.6 25.8 18.8 79 2.4 CALM 0 4 0 2 1014.0 1014.0 0.0
01/06:30pm 22.6 24.6 18.8 79 2.4 S 6 7 3 4 1013.8 1013.8 0.0
01/06:00pm 23.0 24.7 18.5 76 2.8 SSW 7 9 4 5 1013.7 1013.7 0.0
01/05:30pm 23.5 24.9 18.6 74 3.1 WSW 9 11 5 6 1013.4 1013.4 0.0
01/05:00pm 24.1 25.2 18.1 69 3.8 SSW 9 13 5 7 1013.3 1013.3 0.0
01/04:30pm 24.3 25.1 18.2 68 3.8 WSW 11 13 6 7 1013.1 1013.1 0.0
01/04:00pm 24.7 25.4 17.9 66 4.3 SW 11 15 6 8 1013.0 1013.0 0.0
01/03:30pm 25.1 25.7 17.6 63 4.7 SSW 11 13 6 7 1013.0 1013.0 0.0
01/03:00pm 25.2 24.6 16.6 59 5.3 SSW 15 17 8 9 1013.0 1013.0 0.0
01/02:30pm 25.1 24.8 16.5 59 5.3 SW 13 13 7 7 1013.0 1013.0 0.0

Other formats

Comma delimited format used in spreadsheet applications
http://www.bom.gov.au/fwo/IDW60801/IDW60801.95304.axf

JavaScript Object Notation format (JSON) in row-major order
http://www.bom.gov.au/fwo/IDW60801/IDW60801.95304.json

Data quality

Most of these data are generated automatically and are frequently updated. Quality checks on data are not normally performed. It is possible for incorrect values to appear. Refer to information at About Latest Weather Observations and please check the disclaimer before using these data.